Goldfield, Nevada Weather observations

Data are for observation ending at time listed.
 Day   Time    Ave.   Ave.  Ave.  Vector   Max.   Stn.    Total    Solar   Ave.  
  of    of     Air    Rel.  Wind   Wind    Wind   Baro.  Precip.   Rad.    Soil  
Year   Day     Temp.  Hum.  Speed  Dir.    Gust   Pres.                    Temp. 
2016   (PST)    F      %     mph   deg.    mph     mb.     in.     W/m2     F   
------------------------------------------------------------------------------
 177    0:00   64.6    13    4.2   336      7.3   831.1    0.00       0    81.9
 177    0:10   64.2    13    5.0   354      6.9   831.1    0.00       0    81.7
 177    0:20   63.0    14    5.6     6      9.1   831.1    0.00       0    81.5
 177    0:30   64.4    13    4.9   354      8.3   831.2    0.00       0    81.3
 177    0:40   64.0    14    4.7   316      6.4   831.2    0.00       0    81.2
 177    0:50   61.9    14    2.0   305      4.3   831.3    0.00       0    80.9
 177    1:00   61.5    15    4.3   314      7.1   831.3    0.00       0    80.7
 177    1:10   61.7    15    3.2     0      5.4   831.1    0.00       0    80.5
 177    1:20   60.6    16    1.8    16      3.5   831.3    0.00       0    80.3
 177    1:30   59.7    16    3.6   262      5.3   831.4    0.00       0    80.0
 177    1:40   60.2    15    4.5   290      6.8   831.4    0.00       0    79.9
 177    1:50   60.8    14    6.7   296      8.2   831.2    0.00       0    79.6
 177    2:00   62.0    14    7.0   302      8.8   831.3    0.00       0    79.5
 177    2:10   62.7    14    6.3   305      9.3   831.3    0.00       0    79.2
 177    2:20   63.2    13    6.4   316      9.5   831.3    0.00       0    79.0
 177    2:30   63.0    14    3.5   347      5.4   831.4    0.00       0    78.9
 177    2:40   61.6    14    4.6   340      6.9   831.3    0.00       0    78.7
 177    2:50   61.3    15    3.9   332      5.7   831.4    0.00       0    78.5
 177    3:00   59.1    16    4.7   308      6.6   831.4    0.00       0    78.3
 177    3:10   58.5    16    3.5   323      6.1   831.5    0.00       0    78.2
 177    3:20   58.4    17    0.8    24      2.1   831.6    0.00       0    78.0
 177    3:30   57.9    17    0.4    69      1.1   831.5    0.00       0    77.8
 177    3:40   57.6    17    0.2   315      1.1   831.6    0.00       0    77.6
 177    3:50   57.3    17    1.7   252      3.1   831.9    0.00       0    77.4
 177    4:00   56.7    17    1.9   270      3.1   832.5    0.00       0    77.2
 177    4:10   57.4    17    2.5   291      3.7   832.5    0.00       0    77.1
 177    4:20   56.7    17    2.4   300      3.2   832.4    0.00       0    77.0
 177    4:30   56.1    18    1.6   287      3.4   832.5    0.00       2    76.7
 177    4:40   56.4    18    2.1   296      3.5   832.6    0.00       7    76.5
 177    4:50   56.7    18    2.8   309      4.1   832.6    0.00      26    76.4
 177    5:00   57.9    17    2.2   323      3.7   832.5    0.00      59    76.2
 177    5:10   59.8    16    1.4    21      3.9   832.7    0.00      87    76.1
 177    5:20   62.0    15    1.4   342      4.3   832.8    0.00     123    75.9
 177    5:30   62.9    15    4.2   298      6.6   832.8    0.00     148    75.7
 177    5:40   63.8    15    5.9   306      9.5   832.8    0.00     183    75.6
 177    5:50   65.5    15    6.6   322      9.1   832.9    0.00     226    75.5
 177    6:00   65.4    15    8.2   329     13.1   832.9    0.00     264    75.2
 177    6:10   65.8    15    8.1   331     11.4   832.9    0.00     301    75.2
 177    6:20   66.8    15    7.9   333     12.6   832.9    0.00     337    75.1
 177    6:30   67.1    15    9.5   336     14.2   833.0    0.00     373    75.0
 177    6:40   68.1    14   11.3   325     16.9   833.0    0.00     407    74.9
 177    6:50   68.5    14   12.0   330     17.2   833.1    0.00     443    74.8
 177    7:00   68.2    15   12.4   334     16.9   833.2    0.00     479    74.9
 177    7:10   68.6    14   11.7   334     15.9   833.1    0.00     514    74.8
 177    7:20   70.5    14   10.3   327     13.8   833.2    0.00     547    75.0
 177    7:30   71.8    13   10.9   319     15.1   833.1    0.00     578    74.9
 177    7:40   72.6    13   11.9   325     16.0   833.2    0.00     614    75.0
 177    7:50   72.2    14   11.5   331     15.6   833.2    0.00     648    75.1
 177    8:00   72.3    14   12.1   336     18.9   833.2    0.00     680    75.2
 177    8:10   72.2    13   11.9   335     18.6   833.2    0.00     712    75.4
 177    8:20   73.4    13   11.2   333     17.9   833.4    0.00     742    75.6
 177    8:30   73.8    12   10.8   333     16.4   833.3    0.00     770    75.6
 177    8:40   75.2    12    9.6   325     15.3   833.2    0.00     797    76.1
 177    8:50   75.4    12    9.4   334     14.1   833.0    0.00     827    76.4
 177    9:00   75.2    12    8.6   338     20.1   833.0    0.00     852    76.7
 177    9:10   75.7    12    9.5   338     17.8   832.8    0.00     876    77.1
 177    9:20   76.2    11    8.8   333     15.3   832.9    0.00     901    77.6
 177    9:30   76.7    11    9.1   336     16.1   833.0    0.00     923    78.0
 177    9:40   77.5    11    7.9   343     13.8   833.0    0.00     943    78.5
 177    9:50   77.9    10    7.4   354     14.0   832.9    0.00     961    78.9
 177   10:00   78.6    10    7.0   353     13.5   833.0    0.00     980    79.4
 177   10:10   78.1    10    7.5   344     14.5   832.8    0.00     998    80.0
 177   10:20   79.3    10    6.0   341     11.0   832.7    0.00    1012    80.6
 177   10:30   79.5    10    6.5     9     14.6   832.9    0.00    1023    81.2
 177   10:40   80.3    10    4.9   330      9.7   832.9    0.00    1036    81.8
 177   10:50   80.8     9    6.4   354     13.0   832.7    0.00    1046    82.5
 177   11:00   82.1     9    4.3     2     10.2   832.5    0.00    1053    83.2
 177   11:10   82.2     9    6.0    33     12.1   832.4    0.00    1058    83.7
 177   11:20   81.8     9    5.2    33     12.3   832.2    0.00    1064    84.3
 177   11:30   82.7     9    3.4    44      9.6   832.0    0.00    1069    84.9
 177   11:40   83.6     9    2.3   358      7.5   831.8    0.00    1073    85.5
 177   11:50   84.1     8    5.9   350     11.3   831.7    0.00    1073    86.2
 177   12:00   84.7     8    1.7    56      5.6   831.7    0.00    1072    86.9
 177   12:10   85.4     8    4.8    35      9.3   831.6    0.00    1071    87.5
 177   12:20   85.4     8    5.6    38     10.7   831.5    0.00    1066    88.0
 177   12:30   85.7     8    5.6    68     10.9   831.4    0.00    1060    88.4
 177   12:40   84.9     8    5.5     9     10.6   831.3    0.00    1055    89.3
 177   12:50   85.4     8    1.9   332      4.3   831.3    0.00    1049    89.9
 177   13:00   86.6     8    2.6   132      6.4   831.3    0.00    1038    90.1
 177   13:10   87.4     8    5.1   320     10.4   830.9    0.00    1027    90.4
 177   13:20   87.5     8    3.4   324      8.0   830.9    0.00    1010    90.5
 177   13:30   87.4     8    5.5    14     12.3   830.7    0.00     995    90.7
 177   13:40   87.9     8    4.2    68      8.0   830.4    0.00     978    90.7
 177   13:50   88.9     7    4.6    12      8.7   830.5    0.00     959    90.9
 177   14:00   88.4     7    6.0   331     12.3   830.4    0.00     938    91.0
 177   14:10   88.6     7    2.8   333      7.5   830.2    0.00     919    91.4
 177   14:20   89.5     7    5.0   266     13.1   830.0    0.00     897    91.2
 177   14:30   89.6     7    4.8   255      9.9   830.0    0.00     873    91.6
 177   14:40   90.0     7    4.3   287      8.2   829.8    0.00     845    92.0
 177   14:50   90.2     7    5.5   356     10.7   829.6    0.00     817    92.3
 177   15:00   89.7     7    4.8   337     10.0   829.6    0.00     789    92.4
 177   15:10   90.4     7    4.2    14     12.3   829.4    0.00     758    92.4
 177   15:20   90.2     7    3.6   338      8.3   829.4    0.00     732    92.6
 177   15:30   91.0     6    3.6   328      9.6   829.2    0.00     700    92.7
 177   15:40   92.1     6    3.4   323     11.2   829.2    0.00     671    92.7
 177   15:50   90.8     6    6.5   333     13.6   829.2    0.00     638    92.6
 177   16:00   90.9     6    5.6   319     12.1   829.1    0.00     607    92.1
 177   16:10   91.0     6    4.9   318     11.3   829.0    0.00     543    92.2
 177   16:20   91.3     6    5.4    35     10.0   828.9    0.00     530    91.9
 177   16:30   90.1     6    6.8    37     11.7   828.6    0.00     420    91.7
 177   16:40   90.1     6    4.9    23     10.7   828.5    0.00     335    91.5
 177   16:50   90.2     6    5.7    78     10.8   828.6    0.00     437    91.4
 177   17:00   89.9     6    3.6    62      7.3   828.5    0.00     379    90.9
 177   17:10   90.9     6    2.0   265      5.4   828.5    0.00     349    90.6
 177   17:20   91.5     6    3.2    26      7.6   828.4    0.00     227    90.6
 177   17:30   90.5     6    4.4   352      8.4   828.4    0.00     184    90.0
 177   17:40   90.1     6    4.8     4      8.4   828.4    0.00     201    89.8
 177   17:50   91.3     6    1.9   359      6.4   828.4    0.00     222    90.0
 177   18:00   91.3     6    3.8   329      8.6   828.5    0.00     201    89.5
 177   18:10   90.4     6    3.7   354      6.4   828.5    0.00     170    89.4
 177   18:20   89.5     6    4.1   357      7.6   828.5    0.00     141    89.2
 177   18:30   89.5     6    4.0   328      6.5   828.6    0.00     112    89.1
 177   18:40   88.9     7    3.0   353      4.9   828.6    0.00      80    88.9
 177   18:50   87.3     7    2.3    12      4.0   828.6    0.00      52    88.8
 177   19:00   85.8     8    3.1    38      6.6   828.7    0.00      18    88.6
 177   19:10   83.9     8    2.3    23      5.8   828.8    0.00      11    88.5
 177   19:20   82.9     8    1.7     0      3.9   828.9    0.00       6    88.3
 177   19:30   81.4     8    2.0   266      3.7   829.0    0.00       4    88.0
 177   19:40   80.5     9    2.9   278      4.1   829.1    0.00       1    87.8
 177   19:50   79.4     9    3.0   277      4.1   829.2    0.00       0    87.6
 177   20:00   78.5    10    3.2   271      4.2   829.3    0.00       0    87.3
 177   20:10   77.8    10    3.3   273      4.7   829.4    0.00       0    87.0
 177   20:20   77.1    10    1.7   286      4.5   829.5    0.00       0    87.0
 177   20:30   75.9    11    0.8    52      3.1   829.7    0.00       0    86.7
 177   20:40   75.8    11    1.1   177      2.9   829.8    0.00       0    86.5
 177   20:50   75.8    11    2.0   135      3.8   830.0    0.00       0    86.3
 177   21:00   75.4    11    1.7   130      3.1   830.1    0.00       0    86.0
 177   21:10   73.5    12    2.6   129      4.2   830.2    0.00       0    85.8
 177   21:20   72.9    12    1.8   165      2.8   830.3    0.00       0    85.6
 177   21:30   72.7    12    1.1   182      2.1   830.4    0.00       0    85.3
 177   21:40   73.4    11    1.3   275      1.8   830.5    0.00       0    85.1
 177   21:50   73.2    11    2.5   340      6.4   830.7    0.00       0    84.9
 177   22:00   71.0    12    1.9   347      5.0   830.8    0.00       0    84.7
 177   22:10   71.6    10    4.9   297      7.6   830.9    0.00       0    84.5
 177   22:20   72.7     9    3.4   292      5.4   831.0    0.00       0    84.3
 177   22:30   72.5     9    2.7   296      4.7   831.0    0.00       0    84.1
 177   22:40   70.8    10    1.0   303      3.6   831.0    0.00       0    83.9
 177   22:50   70.4     9    4.3   297      6.6   831.0    0.00       0    83.6
 177   23:00   70.7     9    4.3   297      5.7   831.0    0.00       0    83.4

Return to Goldfield, Nevada graphs page.


Western Regional Climate Center,wrcc@dri.edu